createdAt,value
2022-09-07T00:01:08.640Z,16.57
2022-09-07T00:06:12.934Z,16.36
2022-09-07T00:11:18.045Z,16.18
2022-09-07T00:16:23.286Z,16.11
2022-09-07T00:21:25.829Z,16.08
2022-09-07T00:26:29.831Z,16.00
2022-09-07T00:31:32.316Z,15.91
2022-09-07T00:36:34.494Z,15.88
2022-09-07T00:41:36.629Z,15.79
2022-09-07T00:46:38.805Z,15.81
2022-09-07T00:51:46.067Z,15.81
2022-09-07T00:56:50.031Z,15.84
2022-09-07T01:01:53.122Z,15.78
2022-09-07T01:06:56.206Z,15.66
2022-09-07T01:12:00.775Z,15.75
2022-09-07T01:17:34.884Z,15.71
2022-09-07T01:22:54.406Z,15.70
2022-09-07T01:28:08.498Z,15.78
2022-09-07T01:33:27.619Z,15.73
2022-09-07T01:38:42.899Z,15.71
2022-09-07T01:43:50.927Z,15.63
2022-09-07T01:48:56.834Z,15.59
2022-09-07T01:54:07.799Z,15.63
2022-09-07T01:59:25.019Z,15.57
2022-09-07T02:04:35.827Z,15.54
2022-09-07T02:09:44.067Z,15.55
2022-09-07T02:14:57.259Z,15.62
2022-09-07T02:20:08.855Z,15.57
2022-09-07T02:25:16.308Z,15.60
2022-09-07T02:30:18.527Z,15.49
2022-09-07T02:35:20.926Z,15.46
2022-09-07T02:40:23.083Z,15.36
2022-09-07T02:45:25.795Z,15.43
2022-09-07T02:50:46.801Z,15.40
2022-09-07T02:56:07.634Z,15.40
2022-09-07T03:01:26.361Z,15.33
2022-09-07T03:06:47.853Z,15.27
2022-09-07T03:11:50.691Z,15.25
2022-09-07T03:16:56.383Z,15.23
2022-09-07T03:21:58.629Z,15.24
2022-09-07T03:27:01.047Z,15.19
2022-09-07T03:32:03.278Z,15.13
2022-09-07T03:37:05.520Z,15.12
2022-09-07T03:42:07.739Z,15.12
2022-09-07T03:47:09.979Z,15.03
2022-09-07T03:52:12.213Z,14.95
2022-09-07T03:57:14.324Z,14.86
2022-09-07T04:02:16.774Z,14.81
2022-09-07T04:07:18.973Z,14.74
2022-09-07T04:12:21.120Z,14.71
2022-09-07T04:17:23.222Z,14.64
2022-09-07T04:22:25.403Z,14.61
2022-09-07T04:27:27.583Z,14.58
2022-09-07T04:32:29.696Z,14.53
2022-09-07T04:37:31.862Z,14.49
2022-09-07T04:42:34.530Z,14.47
2022-09-07T04:47:36.727Z,14.47
2022-09-07T04:52:38.906Z,14.47
2022-09-07T04:57:41.017Z,14.37
2022-09-07T05:02:43.410Z,14.38
2022-09-07T05:07:45.599Z,14.41
2022-09-07T05:12:47.897Z,14.30
2022-09-07T05:17:50.035Z,14.38
2022-09-07T05:22:55.044Z,14.40
2022-09-07T05:27:57.295Z,14.50
2022-09-07T05:32:59.469Z,14.50
2022-09-07T05:38:01.666Z,14.53
2022-09-07T05:43:03.794Z,14.56
2022-09-07T05:48:05.917Z,14.59
2022-09-07T05:53:08.046Z,14.65
2022-09-07T05:58:10.174Z,14.73
2022-09-07T06:03:12.465Z,14.73
2022-09-07T06:08:14.790Z,14.75
2022-09-07T06:13:16.905Z,14.84
2022-09-07T06:18:19.057Z,14.93
2022-09-07T06:23:21.195Z,15.05
2022-09-07T06:28:34.458Z,15.26
2022-09-07T06:33:36.621Z,15.40
2022-09-07T06:38:39.838Z,15.71
2022-09-07T06:43:45.590Z,15.97
2022-09-07T06:48:48.411Z,16.31
2022-09-07T06:53:51.092Z,16.92
2022-09-07T06:58:54.083Z,17.64
2022-09-07T07:03:56.181Z,17.83
2022-09-07T07:08:58.394Z,17.87
2022-09-07T07:14:00.567Z,17.77
2022-09-07T07:19:02.745Z,17.71
2022-09-07T07:24:08.099Z,17.78
2022-09-07T07:29:10.518Z,17.80
2022-09-07T07:34:15.809Z,17.73
2022-09-07T07:44:40.066Z,17.79
2022-09-07T07:49:42.162Z,17.80
2022-09-07T07:54:44.509Z,17.76
2022-09-07T07:59:46.642Z,17.74
2022-09-07T08:04:48.972Z,17.71
2022-09-07T08:09:51.140Z,17.65
2022-09-07T08:14:53.237Z,17.62
2022-09-07T08:19:55.390Z,17.62
2022-09-07T08:24:57.515Z,17.64
2022-09-07T08:30:00.243Z,17.59
2022-09-07T08:35:02.476Z,17.60
2022-09-07T08:40:04.974Z,17.72
2022-09-07T08:45:17.163Z,17.84
2022-09-07T08:50:40.696Z,18.05
2022-09-07T08:55:58.392Z,18.12
2022-09-07T09:06:46.854Z,18.79
2022-09-07T09:12:06.015Z,19.06
2022-09-07T09:17:16.035Z,19.68
2022-09-07T09:22:21.544Z,20.00
2022-09-07T09:27:23.691Z,20.33
2022-09-07T09:32:33.199Z,20.45
2022-09-07T09:37:37.002Z,20.24
2022-09-07T09:42:39.169Z,20.03
2022-09-07T09:47:41.389Z,20.09
2022-09-07T09:52:51.641Z,20.14
2022-09-07T10:09:00.333Z,20.51
2022-09-07T10:14:02.573Z,20.50
2022-09-07T10:19:04.774Z,21.31
2022-09-07T10:24:06.831Z,21.53
2022-09-07T10:29:29.209Z,20.96
2022-09-07T10:34:57.427Z,20.91
2022-09-07T10:40:20.896Z,21.31
2022-09-07T10:45:26.242Z,21.10
2022-09-07T10:50:48.453Z,21.36
2022-09-07T10:56:05.452Z,21.14
2022-09-07T11:01:14.650Z,21.41
2022-09-07T11:06:21.977Z,21.60
2022-09-07T11:12:02.039Z,22.98
2022-09-07T11:17:25.795Z,22.87
2022-09-07T11:22:41.545Z,22.90
2022-09-07T11:28:28.014Z,22.81
2022-09-07T11:39:22.088Z,24.93
2022-09-07T11:44:31.416Z,25.71
2022-09-07T11:49:37.438Z,25.06
2022-09-07T12:00:23.608Z,24.44
2022-09-07T12:06:09.803Z,24.22
2022-09-07T12:11:31.320Z,24.33
2022-09-07T12:16:42.643Z,24.36
2022-09-07T12:21:53.714Z,24.71
2022-09-07T12:26:56.665Z,25.99
2022-09-07T12:32:52.576Z,25.30
2022-09-07T12:37:26.153Z,25.93
2022-09-07T12:42:33.114Z,25.70
2022-09-07T12:47:36.211Z,27.19
2022-09-07T12:52:54.224Z,27.70
2022-09-07T12:57:59.218Z,27.45
2022-09-07T13:09:32.584Z,26.60
2022-09-07T13:14:38.444Z,27.11
2022-09-07T13:19:46.634Z,26.47
2022-09-07T13:24:50.456Z,27.50
2022-09-07T13:29:57.378Z,28.04
2022-09-07T13:35:02.241Z,29.05
2022-09-07T13:40:10.431Z,29.14
2022-09-07T13:45:46.115Z,29.09
2022-09-07T13:50:48.289Z,28.15
2022-09-07T13:56:02.073Z,26.69
2022-09-07T14:01:14.468Z,26.12
2022-09-07T14:06:16.608Z,26.66
2022-09-07T14:11:37.871Z,27.20
2022-09-07T14:16:42.834Z,26.96
2022-09-07T14:21:54.291Z,27.90
2022-09-07T14:26:56.821Z,29.28
2022-09-07T14:32:01.824Z,29.54
2022-09-07T14:37:07.726Z,28.41
2022-09-07T14:42:12.408Z,27.46
2022-09-07T14:47:32.874Z,26.97
2022-09-07T14:52:43.312Z,25.84
2022-09-07T14:58:15.046Z,25.26
2022-09-07T15:03:29.082Z,25.38
2022-09-07T15:08:40.297Z,25.19
2022-09-07T15:13:45.047Z,24.92
2022-09-07T15:18:49.666Z,24.99
2022-09-07T15:23:53.447Z,25.74
2022-09-07T15:29:12.407Z,25.34
2022-09-07T15:34:19.659Z,25.26
2022-09-07T15:39:25.374Z,24.95
2022-09-07T15:44:28.563Z,24.76
2022-09-07T15:49:30.815Z,24.74
2022-09-07T15:54:35.243Z,24.65
2022-09-07T15:59:38.561Z,24.72
2022-09-07T16:04:40.958Z,24.48
2022-09-07T16:09:43.222Z,24.23
2022-09-07T16:14:45.357Z,23.92
2022-09-07T16:19:47.585Z,23.60
2022-09-07T16:24:49.965Z,23.30
2022-09-07T16:29:52.043Z,23.00
2022-09-07T16:34:54.193Z,22.65
2022-09-07T16:39:56.443Z,22.30
2022-09-07T16:46:02.506Z,21.97
2022-09-07T16:50:20.957Z,21.64
2022-09-07T16:55:23.073Z,21.39
2022-09-07T17:00:25.234Z,21.10
2022-09-07T17:05:27.378Z,20.79
2022-09-07T17:10:29.502Z,20.39
2022-09-07T17:15:35.574Z,20.08
2022-09-07T17:20:37.822Z,19.81
2022-09-07T17:25:39.976Z,19.54
2022-09-07T17:30:42.328Z,19.29
2022-09-07T17:35:44.459Z,19.04
2022-09-07T17:40:46.785Z,18.84
2022-09-07T17:45:49.046Z,18.73
2022-09-07T17:51:00.492Z,18.58
2022-09-07T17:56:04.337Z,18.40
2022-09-07T18:01:10.470Z,18.20
2022-09-07T18:06:13.400Z,17.97
2022-09-07T18:16:39.117Z,17.59
2022-09-07T18:21:43.147Z,17.46
2022-09-07T18:26:51.034Z,17.40
2022-09-07T18:31:54.218Z,17.29
2022-09-07T18:36:56.531Z,17.17
2022-09-07T18:41:58.791Z,17.12
2022-09-07T18:47:01.119Z,17.10
2022-09-07T18:57:26.076Z,17.13
2022-09-07T19:02:28.283Z,17.02
2022-09-07T19:07:30.523Z,16.97
2022-09-07T19:12:32.740Z,16.87
2022-09-07T19:17:35.001Z,16.57
2022-09-07T19:22:37.214Z,16.34
2022-09-07T19:27:39.390Z,16.10
2022-09-07T19:32:41.514Z,15.91
2022-09-07T19:37:43.631Z,15.82
2022-09-07T19:42:45.893Z,15.73
2022-09-07T19:47:47.995Z,15.68
2022-09-07T19:52:50.217Z,15.61
2022-09-07T19:57:52.510Z,15.56
2022-09-07T20:02:54.669Z,15.51
2022-09-07T20:07:57.661Z,15.46
2022-09-07T20:12:59.656Z,15.51
2022-09-07T20:18:01.712Z,15.39
2022-09-07T20:23:03.828Z,15.23
2022-09-07T20:28:06.048Z,15.08
2022-09-07T20:33:08.176Z,14.94
2022-09-07T20:38:10.896Z,14.85
2022-09-07T20:43:13.134Z,14.87
2022-09-07T20:48:15.803Z,14.82
2022-09-07T20:53:17.935Z,14.85
2022-09-07T20:58:20.023Z,14.79
2022-09-07T21:03:22.633Z,14.70
2022-09-07T21:08:24.775Z,14.54
2022-09-07T21:13:26.923Z,14.45
2022-09-07T21:18:29.165Z,14.33
2022-09-07T21:23:33.351Z,14.24
2022-09-07T21:28:35.522Z,14.19
2022-09-07T21:33:37.711Z,14.16
2022-09-07T21:38:41.485Z,14.03
2022-09-07T21:43:43.620Z,13.89
2022-09-07T21:48:46.251Z,13.83
2022-09-07T21:54:00.939Z,13.95
2022-09-07T21:59:03.069Z,13.93
2022-09-07T22:04:05.537Z,13.90
2022-09-07T22:09:07.765Z,13.78
2022-09-07T22:14:11.670Z,13.79
2022-09-07T22:19:13.793Z,13.64
2022-09-07T22:24:16.668Z,13.57
2022-09-07T22:29:18.796Z,13.55
2022-09-07T22:34:20.903Z,13.61
2022-09-07T22:39:23.051Z,13.54
2022-09-07T22:44:25.190Z,13.50
2022-09-07T22:49:27.350Z,13.38
2022-09-07T22:54:29.484Z,13.34
2022-09-07T22:59:31.643Z,13.25
2022-09-07T23:04:33.859Z,13.21
2022-09-07T23:09:35.990Z,13.23
2022-09-07T23:14:38.107Z,13.25
2022-09-07T23:19:40.292Z,13.28
2022-09-07T23:24:42.395Z,13.27
2022-09-07T23:29:44.523Z,13.36
2022-09-07T23:34:46.644Z,13.43
2022-09-07T23:39:48.813Z,13.38
2022-09-07T23:44:51.021Z,13.51
2022-09-07T23:49:53.120Z,13.72
2022-09-07T23:54:55.364Z,13.67
2022-09-07T23:59:57.627Z,13.65
